sensor_id;sensor_type;location;lat;lon;timestamp;P1;durP1;ratioP1;P2;durP2;ratioP2
76667;SDS011;65585;51.166;16.922;2023-06-14T00:02:18;8.30;;;5.95;;
76667;SDS011;65585;51.166;16.922;2023-06-14T00:04:44;10.13;;;5.82;;
76667;SDS011;65585;51.166;16.922;2023-06-14T00:07:10;8.10;;;5.18;;
76667;SDS011;65585;51.166;16.922;2023-06-14T00:09:39;8.18;;;6.32;;
76667;SDS011;65585;51.166;16.922;2023-06-14T00:12:05;7.18;;;5.72;;
76667;SDS011;65585;51.166;16.922;2023-06-14T00:14:33;7.43;;;5.40;;
76667;SDS011;65585;51.166;16.922;2023-06-14T00:16:58;7.05;;;5.30;;
76667;SDS011;65585;51.166;16.922;2023-06-14T00:19:25;7.93;;;5.47;;
76667;SDS011;65585;51.166;16.922;2023-06-14T00:21:51;7.65;;;5.90;;
76667;SDS011;65585;51.166;16.922;2023-06-14T00:24:19;7.72;;;5.32;;
76667;SDS011;65585;51.166;16.922;2023-06-14T00:26:45;10.32;;;5.28;;
76667;SDS011;65585;51.166;16.922;2023-06-14T00:29:12;6.38;;;5.15;;
76667;SDS011;65585;51.166;16.922;2023-06-14T00:31:38;10.38;;;5.70;;
76667;SDS011;65585;51.166;16.922;2023-06-14T00:34:04;6.88;;;4.95;;
76667;SDS011;65585;51.166;16.922;2023-06-14T00:36:31;7.78;;;5.40;;
76667;SDS011;65585;51.166;16.922;2023-06-14T00:38:57;6.93;;;4.90;;
76667;SDS011;65585;51.166;16.922;2023-06-14T00:41:23;7.88;;;5.30;;
76667;SDS011;65585;51.166;16.922;2023-06-14T00:43:50;8.13;;;5.50;;
76667;SDS011;65585;51.166;16.922;2023-06-14T00:46:16;6.78;;;5.53;;
76667;SDS011;65585;51.166;16.922;2023-06-14T00:51:11;7.00;;;4.93;;
76667;SDS011;65585;51.166;16.922;2023-06-14T00:53:38;8.05;;;5.57;;
76667;SDS011;65585;51.166;16.922;2023-06-14T00:56:06;9.95;;;5.65;;
76667;SDS011;65585;51.166;16.922;2023-06-14T00:58:32;8.60;;;5.43;;
76667;SDS011;65585;51.166;16.922;2023-06-14T01:00:58;6.43;;;4.90;;
76667;SDS011;65585;51.166;16.922;2023-06-14T01:03:25;11.45;;;5.50;;
76667;SDS011;65585;51.166;16.922;2023-06-14T01:05:52;8.98;;;5.68;;
76667;SDS011;65585;51.166;16.922;2023-06-14T01:08:31;7.50;;;5.72;;
76667;SDS011;65585;51.166;16.922;2023-06-14T01:11:05;9.00;;;5.97;;
76667;SDS011;65585;51.166;16.922;2023-06-14T01:13:40;7.38;;;5.25;;
76667;SDS011;65585;51.166;16.922;2023-06-14T01:16:09;11.15;;;6.53;;
76667;SDS011;65585;51.166;16.922;2023-06-14T01:18:36;7.80;;;5.85;;
76667;SDS011;65585;51.166;16.922;2023-06-14T01:21:02;6.13;;;4.88;;
76667;SDS011;65585;51.166;16.922;2023-06-14T01:23:32;6.78;;;5.25;;
76667;SDS011;65585;51.166;16.922;2023-06-14T01:25:59;6.72;;;5.20;;
76667;SDS011;65585;51.166;16.922;2023-06-14T01:28:29;7.57;;;5.88;;
76667;SDS011;65585;51.166;16.922;2023-06-14T01:31:00;8.55;;;5.45;;
76667;SDS011;65585;51.166;16.922;2023-06-14T01:33:31;7.10;;;5.20;;
76667;SDS011;65585;51.166;16.922;2023-06-14T01:35:58;7.40;;;5.20;;
76667;SDS011;65585;51.166;16.922;2023-06-14T01:38:26;6.85;;;5.32;;
76667;SDS011;65585;51.166;16.922;2023-06-14T01:40:53;7.25;;;5.13;;
76667;SDS011;65585;51.166;16.922;2023-06-14T01:43:21;7.47;;;5.18;;
76667;SDS011;65585;51.166;16.922;2023-06-14T01:45:47;7.50;;;5.20;;
76667;SDS011;65585;51.166;16.922;2023-06-14T01:48:15;7.15;;;5.63;;
76667;SDS011;65585;51.166;16.922;2023-06-14T01:50:41;8.07;;;5.13;;
76667;SDS011;65585;51.166;16.922;2023-06-14T01:53:08;7.00;;;5.22;;
76667;SDS011;65585;51.166;16.922;2023-06-14T01:55:34;6.65;;;4.95;;
76667;SDS011;65585;51.166;16.922;2023-06-14T01:58:04;6.95;;;5.35;;
76667;SDS011;65585;51.166;16.922;2023-06-14T02:00:30;7.03;;;5.28;;
76667;SDS011;65585;51.166;16.922;2023-06-14T02:02:57;7.82;;;5.55;;
76667;SDS011;65585;51.166;16.922;2023-06-14T02:05:23;7.75;;;5.53;;
76667;SDS011;65585;51.166;16.922;2023-06-14T02:07:50;6.82;;;4.90;;
76667;SDS011;65585;51.166;16.922;2023-06-14T02:10:16;8.15;;;5.68;;
76667;SDS011;65585;51.166;16.922;2023-06-14T02:12:43;11.88;;;5.95;;
76667;SDS011;65585;51.166;16.922;2023-06-14T02:15:10;8.43;;;5.45;;
76667;SDS011;65585;51.166;16.922;2023-06-14T02:17:43;12.82;;;5.80;;
76667;SDS011;65585;51.166;16.922;2023-06-14T02:20:10;7.10;;;5.03;;
76667;SDS011;65585;51.166;16.922;2023-06-14T02:22:37;7.05;;;5.57;;
76667;SDS011;65585;51.166;16.922;2023-06-14T02:25:03;7.55;;;5.00;;
76667;SDS011;65585;51.166;16.922;2023-06-14T02:27:30;7.32;;;5.28;;
76667;SDS011;65585;51.166;16.922;2023-06-14T02:29:56;6.78;;;5.65;;
76667;SDS011;65585;51.166;16.922;2023-06-14T02:32:23;7.22;;;5.38;;
76667;SDS011;65585;51.166;16.922;2023-06-14T02:34:49;8.52;;;5.70;;
76667;SDS011;65585;51.166;16.922;2023-06-14T02:37:16;10.93;;;5.57;;
76667;SDS011;65585;51.166;16.922;2023-06-14T02:39:42;9.35;;;6.03;;
76667;SDS011;65585;51.166;16.922;2023-06-14T02:42:11;8.30;;;5.28;;
76667;SDS011;65585;51.166;16.922;2023-06-14T02:44:37;8.75;;;5.70;;
76667;SDS011;65585;51.166;16.922;2023-06-14T02:47:04;8.50;;;5.78;;
76667;SDS011;65585;51.166;16.922;2023-06-14T02:49:30;9.20;;;5.82;;
76667;SDS011;65585;51.166;16.922;2023-06-14T02:51:57;7.78;;;5.68;;
76667;SDS011;65585;51.166;16.922;2023-06-14T02:54:23;10.32;;;6.10;;
76667;SDS011;65585;51.166;16.922;2023-06-14T02:56:49;9.02;;;6.18;;
76667;SDS011;65585;51.166;16.922;2023-06-14T02:59:16;10.18;;;6.15;;
76667;SDS011;65585;51.166;16.922;2023-06-14T03:01:43;10.20;;;6.55;;
76667;SDS011;65585;51.166;16.922;2023-06-14T03:04:09;8.30;;;6.38;;
76667;SDS011;65585;51.166;16.922;2023-06-14T03:06:35;11.60;;;6.90;;
76667;SDS011;65585;51.166;16.922;2023-06-14T03:09:02;7.93;;;5.97;;
76667;SDS011;65585;51.166;16.922;2023-06-14T03:11:32;8.23;;;5.85;;
76667;SDS011;65585;51.166;16.922;2023-06-14T03:13:58;10.30;;;5.82;;
76667;SDS011;65585;51.166;16.922;2023-06-14T03:16:26;7.88;;;6.00;;
76667;SDS011;65585;51.166;16.922;2023-06-14T03:18:58;9.52;;;5.85;;
76667;SDS011;65585;51.166;16.922;2023-06-14T03:21:24;7.63;;;5.60;;
76667;SDS011;65585;51.166;16.922;2023-06-14T03:23:51;7.93;;;5.53;;
76667;SDS011;65585;51.166;16.922;2023-06-14T03:26:19;8.20;;;5.95;;
76667;SDS011;65585;51.166;16.922;2023-06-14T03:28:45;10.05;;;6.70;;
76667;SDS011;65585;51.166;16.922;2023-06-14T03:31:12;12.48;;;7.75;;
76667;SDS011;65585;51.166;16.922;2023-06-14T03:33:39;15.95;;;8.70;;
76667;SDS011;65585;51.166;16.922;2023-06-14T03:36:06;14.40;;;9.50;;
76667;SDS011;65585;51.166;16.922;2023-06-14T03:38:35;15.43;;;9.00;;
76667;SDS011;65585;51.166;16.922;2023-06-14T03:41:01;13.10;;;7.90;;
76667;SDS011;65585;51.166;16.922;2023-06-14T03:43:27;12.38;;;8.93;;
76667;SDS011;65585;51.166;16.922;2023-06-14T03:45:55;11.88;;;7.65;;
76667;SDS011;65585;51.166;16.922;2023-06-14T03:48:22;10.75;;;7.68;;
76667;SDS011;65585;51.166;16.922;2023-06-14T03:50:48;9.52;;;7.72;;
76667;SDS011;65585;51.166;16.922;2023-06-14T03:53:14;9.77;;;7.75;;
76667;SDS011;65585;51.166;16.922;2023-06-14T03:55:41;10.40;;;7.22;;
76667;SDS011;65585;51.166;16.922;2023-06-14T03:58:08;9.85;;;6.38;;
76667;SDS011;65585;51.166;16.922;2023-06-14T04:00:34;11.30;;;7.40;;
76667;SDS011;65585;51.166;16.922;2023-06-14T04:03:01;9.05;;;6.82;;
76667;SDS011;65585;51.166;16.922;2023-06-14T04:05:30;12.10;;;7.45;;
76667;SDS011;65585;51.166;16.922;2023-06-14T04:07:56;9.70;;;7.35;;
76667;SDS011;65585;51.166;16.922;2023-06-14T04:10:25;8.85;;;6.40;;
76667;SDS011;65585;51.166;16.922;2023-06-14T04:12:50;7.55;;;6.72;;
76667;SDS011;65585;51.166;16.922;2023-06-14T04:15:17;8.60;;;6.75;;
76667;SDS011;65585;51.166;16.922;2023-06-14T04:17:44;9.20;;;6.68;;
76667;SDS011;65585;51.166;16.922;2023-06-14T04:20:10;7.88;;;6.82;;
76667;SDS011;65585;51.166;16.922;2023-06-14T04:22:36;10.38;;;7.15;;
76667;SDS011;65585;51.166;16.922;2023-06-14T04:25:03;12.27;;;7.13;;
76667;SDS011;65585;51.166;16.922;2023-06-14T04:27:31;12.20;;;7.72;;
76667;SDS011;65585;51.166;16.922;2023-06-14T04:30:00;11.65;;;8.00;;
76667;SDS011;65585;51.166;16.922;2023-06-14T04:32:28;11.15;;;7.72;;
76667;SDS011;65585;51.166;16.922;2023-06-14T04:34:59;11.05;;;8.10;;
76667;SDS011;65585;51.166;16.922;2023-06-14T04:37:27;12.32;;;7.43;;
76667;SDS011;65585;51.166;16.922;2023-06-14T04:39:55;8.85;;;7.20;;
76667;SDS011;65585;51.166;16.922;2023-06-14T04:42:21;8.48;;;6.90;;
76667;SDS011;65585;51.166;16.922;2023-06-14T04:44:51;10.18;;;7.03;;
76667;SDS011;65585;51.166;16.922;2023-06-14T04:47:20;9.48;;;6.40;;
76667;SDS011;65585;51.166;16.922;2023-06-14T04:49:47;11.15;;;7.07;;
76667;SDS011;65585;51.166;16.922;2023-06-14T04:52:13;8.50;;;6.32;;
76667;SDS011;65585;51.166;16.922;2023-06-14T04:54:39;8.95;;;6.70;;
76667;SDS011;65585;51.166;16.922;2023-06-14T04:57:09;9.20;;;6.32;;
76667;SDS011;65585;51.166;16.922;2023-06-14T04:59:40;8.13;;;6.38;;
76667;SDS011;65585;51.166;16.922;2023-06-14T05:02:06;9.60;;;6.30;;
76667;SDS011;65585;51.166;16.922;2023-06-14T05:04:34;11.57;;;6.32;;
76667;SDS011;65585;51.166;16.922;2023-06-14T05:07:08;9.63;;;6.63;;
76667;SDS011;65585;51.166;16.922;2023-06-14T05:09:35;8.63;;;6.75;;
76667;SDS011;65585;51.166;16.922;2023-06-14T05:12:02;11.27;;;6.70;;
76667;SDS011;65585;51.166;16.922;2023-06-14T05:14:29;9.15;;;6.38;;
76667;SDS011;65585;51.166;16.922;2023-06-14T05:16:55;8.35;;;5.93;;
76667;SDS011;65585;51.166;16.922;2023-06-14T05:19:22;8.10;;;6.38;;
76667;SDS011;65585;51.166;16.922;2023-06-14T05:21:52;10.32;;;6.70;;
76667;SDS011;65585;51.166;16.922;2023-06-14T05:24:19;9.68;;;6.78;;
76667;SDS011;65585;51.166;16.922;2023-06-14T05:26:45;10.13;;;6.68;;
76667;SDS011;65585;51.166;16.922;2023-06-14T05:29:12;10.13;;;6.63;;
76667;SDS011;65585;51.166;16.922;2023-06-14T05:31:38;10.05;;;7.28;;
76667;SDS011;65585;51.166;16.922;2023-06-14T05:34:05;14.82;;;8.52;;
76667;SDS011;65585;51.166;16.922;2023-06-14T05:36:31;11.35;;;7.70;;
76667;SDS011;65585;51.166;16.922;2023-06-14T05:38:57;10.45;;;7.45;;
76667;SDS011;65585;51.166;16.922;2023-06-14T05:43:52;12.82;;;7.47;;
76667;SDS011;65585;51.166;16.922;2023-06-14T05:46:19;10.52;;;6.38;;
76667;SDS011;65585;51.166;16.922;2023-06-14T05:48:48;12.25;;;8.50;;
76667;SDS011;65585;51.166;16.922;2023-06-14T05:51:14;12.75;;;8.48;;
76667;SDS011;65585;51.166;16.922;2023-06-14T05:53:48;10.68;;;8.10;;
76667;SDS011;65585;51.166;16.922;2023-06-14T05:56:14;14.20;;;9.48;;
76667;SDS011;65585;51.166;16.922;2023-06-14T05:58:41;15.35;;;9.05;;
76667;SDS011;65585;51.166;16.922;2023-06-14T06:01:07;14.13;;;9.40;;
76667;SDS011;65585;51.166;16.922;2023-06-14T06:03:34;12.65;;;9.07;;
76667;SDS011;65585;51.166;16.922;2023-06-14T06:06:00;11.35;;;7.97;;
76667;SDS011;65585;51.166;16.922;2023-06-14T06:08:27;15.20;;;9.23;;
76667;SDS011;65585;51.166;16.922;2023-06-14T06:10:53;14.55;;;9.27;;
76667;SDS011;65585;51.166;16.922;2023-06-14T06:13:19;15.07;;;9.23;;
76667;SDS011;65585;51.166;16.922;2023-06-14T06:15:45;13.80;;;9.05;;
76667;SDS011;65585;51.166;16.922;2023-06-14T06:18:12;12.52;;;9.93;;
76667;SDS011;65585;51.166;16.922;2023-06-14T06:20:38;14.15;;;9.65;;
76667;SDS011;65585;51.166;16.922;2023-06-14T06:23:04;13.18;;;8.75;;
76667;SDS011;65585;51.166;16.922;2023-06-14T06:25:30;14.55;;;9.15;;
76667;SDS011;65585;51.166;16.922;2023-06-14T06:27:57;11.70;;;8.85;;
76667;SDS011;65585;51.166;16.922;2023-06-14T06:30:24;12.52;;;8.38;;
76667;SDS011;65585;51.166;16.922;2023-06-14T06:32:51;13.45;;;8.68;;
76667;SDS011;65585;51.166;16.922;2023-06-14T06:35:17;12.32;;;9.02;;
76667;SDS011;65585;51.166;16.922;2023-06-14T06:37:43;12.43;;;9.00;;
76667;SDS011;65585;51.166;16.922;2023-06-14T06:40:09;13.65;;;8.80;;
76667;SDS011;65585;51.166;16.922;2023-06-14T06:42:36;12.77;;;9.60;;
76667;SDS011;65585;51.166;16.922;2023-06-14T06:45:02;14.38;;;9.45;;
76667;SDS011;65585;51.166;16.922;2023-06-14T06:47:29;12.70;;;10.02;;
76667;SDS011;65585;51.166;16.922;2023-06-14T06:49:55;13.48;;;9.00;;
76667;SDS011;65585;51.166;16.922;2023-06-14T06:52:22;14.23;;;10.00;;
76667;SDS011;65585;51.166;16.922;2023-06-14T06:54:48;13.32;;;9.77;;
76667;SDS011;65585;51.166;16.922;2023-06-14T06:57:15;16.40;;;10.23;;
76667;SDS011;65585;51.166;16.922;2023-06-14T06:59:41;13.43;;;9.18;;
76667;SDS011;65585;51.166;16.922;2023-06-14T07:02:08;14.15;;;9.15;;
76667;SDS011;65585;51.166;16.922;2023-06-14T07:04:34;13.43;;;9.65;;
76667;SDS011;65585;51.166;16.922;2023-06-14T07:07:00;12.55;;;9.65;;
76667;SDS011;65585;51.166;16.922;2023-06-14T07:09:26;13.30;;;8.73;;
76667;SDS011;65585;51.166;16.922;2023-06-14T07:11:53;14.65;;;9.32;;
76667;SDS011;65585;51.166;16.922;2023-06-14T07:14:19;15.00;;;8.35;;
76667;SDS011;65585;51.166;16.922;2023-06-14T07:16:45;14.60;;;9.80;;
76667;SDS011;65585;51.166;16.922;2023-06-14T07:19:12;14.68;;;9.85;;
76667;SDS011;65585;51.166;16.922;2023-06-14T07:21:39;15.77;;;10.20;;
76667;SDS011;65585;51.166;16.922;2023-06-14T07:24:05;13.07;;;8.57;;
76667;SDS011;65585;51.166;16.922;2023-06-14T07:26:34;13.25;;;9.45;;
76667;SDS011;65585;51.166;16.922;2023-06-14T07:29:01;14.52;;;9.77;;
76667;SDS011;65585;51.166;16.922;2023-06-14T07:33:53;12.75;;;9.27;;
76667;SDS011;65585;51.166;16.922;2023-06-14T07:36:20;14.20;;;8.98;;
76667;SDS011;65585;51.166;16.922;2023-06-14T07:38:46;14.30;;;9.85;;
76667;SDS011;65585;51.166;16.922;2023-06-14T07:41:12;13.10;;;9.07;;
76667;SDS011;65585;51.166;16.922;2023-06-14T07:43:38;11.00;;;8.52;;
76667;SDS011;65585;51.166;16.922;2023-06-14T07:46:04;12.40;;;8.40;;
76667;SDS011;65585;51.166;16.922;2023-06-14T07:48:30;14.07;;;9.55;;
76667;SDS011;65585;51.166;16.922;2023-06-14T07:50:57;10.65;;;8.10;;
76667;SDS011;65585;51.166;16.922;2023-06-14T07:53:23;12.48;;;8.75;;
76667;SDS011;65585;51.166;16.922;2023-06-14T07:55:51;11.23;;;8.00;;
76667;SDS011;65585;51.166;16.922;2023-06-14T07:58:17;9.30;;;7.60;;
76667;SDS011;65585;51.166;16.922;2023-06-14T08:00:43;11.93;;;8.50;;
76667;SDS011;65585;51.166;16.922;2023-06-14T08:03:09;11.07;;;7.53;;
76667;SDS011;65585;51.166;16.922;2023-06-14T08:05:36;11.00;;;7.75;;
76667;SDS011;65585;51.166;16.922;2023-06-14T08:08:01;10.20;;;7.68;;
76667;SDS011;65585;51.166;16.922;2023-06-14T08:10:28;10.98;;;7.60;;
76667;SDS011;65585;51.166;16.922;2023-06-14T08:12:54;10.45;;;7.68;;
76667;SDS011;65585;51.166;16.922;2023-06-14T08:15:20;13.40;;;8.45;;
76667;SDS011;65585;51.166;16.922;2023-06-14T08:17:46;13.27;;;8.35;;
76667;SDS011;65585;51.166;16.922;2023-06-14T08:20:12;11.23;;;9.00;;
76667;SDS011;65585;51.166;16.922;2023-06-14T08:22:39;11.30;;;8.80;;
76667;SDS011;65585;51.166;16.922;2023-06-14T08:25:08;11.93;;;8.93;;
76667;SDS011;65585;51.166;16.922;2023-06-14T08:27:34;11.30;;;8.00;;
76667;SDS011;65585;51.166;16.922;2023-06-14T08:30:01;13.10;;;8.23;;
76667;SDS011;65585;51.166;16.922;2023-06-14T08:34:54;11.48;;;7.60;;
76667;SDS011;65585;51.166;16.922;2023-06-14T08:37:20;12.07;;;8.15;;
76667;SDS011;65585;51.166;16.922;2023-06-14T08:39:47;14.05;;;8.18;;
76667;SDS011;65585;51.166;16.922;2023-06-14T08:42:14;14.02;;;8.35;;
76667;SDS011;65585;51.166;16.922;2023-06-14T08:44:40;12.05;;;8.07;;
76667;SDS011;65585;51.166;16.922;2023-06-14T08:47:07;8.68;;;6.47;;
76667;SDS011;65585;51.166;16.922;2023-06-14T08:49:34;9.23;;;6.40;;
76667;SDS011;65585;51.166;16.922;2023-06-14T08:52:01;8.95;;;7.57;;
76667;SDS011;65585;51.166;16.922;2023-06-14T08:54:28;10.32;;;7.65;;
76667;SDS011;65585;51.166;16.922;2023-06-14T08:56:59;8.38;;;6.95;;
76667;SDS011;65585;51.166;16.922;2023-06-14T08:59:26;10.93;;;7.03;;
76667;SDS011;65585;51.166;16.922;2023-06-14T09:01:52;8.63;;;6.50;;
76667;SDS011;65585;51.166;16.922;2023-06-14T09:04:20;9.05;;;6.25;;
76667;SDS011;65585;51.166;16.922;2023-06-14T09:06:55;10.85;;;6.72;;
76667;SDS011;65585;51.166;16.922;2023-06-14T09:09:22;8.95;;;6.22;;
76667;SDS011;65585;51.166;16.922;2023-06-14T09:11:54;8.18;;;5.88;;
76667;SDS011;65585;51.166;16.922;2023-06-14T09:14:23;7.57;;;6.53;;
76667;SDS011;65585;51.166;16.922;2023-06-14T09:16:53;8.48;;;5.75;;
76667;SDS011;65585;51.166;16.922;2023-06-14T09:19:23;11.20;;;6.68;;
76667;SDS011;65585;51.166;16.922;2023-06-14T09:21:50;8.30;;;6.45;;
76667;SDS011;65585;51.166;16.922;2023-06-14T09:24:19;9.55;;;6.85;;
76667;SDS011;65585;51.166;16.922;2023-06-14T09:26:48;11.90;;;6.95;;
76667;SDS011;65585;51.166;16.922;2023-06-14T09:29:17;9.43;;;6.55;;
76667;SDS011;65585;51.166;16.922;2023-06-14T09:31:46;7.00;;;6.07;;
76667;SDS011;65585;51.166;16.922;2023-06-14T09:34:12;8.73;;;6.53;;
76667;SDS011;65585;51.166;16.922;2023-06-14T09:36:39;7.50;;;5.72;;
76667;SDS011;65585;51.166;16.922;2023-06-14T09:39:08;6.55;;;5.25;;
76667;SDS011;65585;51.166;16.922;2023-06-14T09:41:38;10.15;;;5.60;;
76667;SDS011;65585;51.166;16.922;2023-06-14T09:44:10;9.27;;;5.18;;
76667;SDS011;65585;51.166;16.922;2023-06-14T09:46:39;6.22;;;4.80;;
76667;SDS011;65585;51.166;16.922;2023-06-14T09:49:06;8.43;;;5.72;;
76667;SDS011;65585;51.166;16.922;2023-06-14T09:51:34;9.35;;;5.80;;
76667;SDS011;65585;51.166;16.922;2023-06-14T09:54:03;7.00;;;4.90;;
76667;SDS011;65585;51.166;16.922;2023-06-14T09:59:21;7.93;;;5.40;;
76667;SDS011;65585;51.166;16.922;2023-06-14T10:01:52;5.70;;;4.57;;
76667;SDS011;65585;51.166;16.922;2023-06-14T10:04:25;7.28;;;5.10;;
76667;SDS011;65585;51.166;16.922;2023-06-14T10:06:52;7.35;;;5.95;;
76667;SDS011;65585;51.166;16.922;2023-06-14T10:09:19;8.70;;;5.80;;
76667;SDS011;65585;51.166;16.922;2023-06-14T10:11:46;7.43;;;5.15;;
76667;SDS011;65585;51.166;16.922;2023-06-14T10:14:13;5.97;;;4.93;;
76667;SDS011;65585;51.166;16.922;2023-06-14T10:19:23;5.40;;;4.43;;
76667;SDS011;65585;51.166;16.922;2023-06-14T10:22:10;8.25;;;5.20;;
76667;SDS011;65585;51.166;16.922;2023-06-14T10:24:44;7.78;;;5.03;;
76667;SDS011;65585;51.166;16.922;2023-06-14T10:27:14;7.65;;;4.80;;
76667;SDS011;65585;51.166;16.922;2023-06-14T10:32:18;7.43;;;4.70;;
76667;SDS011;65585;51.166;16.922;2023-06-14T10:34:56;5.40;;;4.50;;
76667;SDS011;65585;51.166;16.922;2023-06-14T10:37:26;5.65;;;4.07;;
76667;SDS011;65585;51.166;16.922;2023-06-14T10:39:53;5.93;;;4.30;;
76667;SDS011;65585;51.166;16.922;2023-06-14T10:42:19;4.82;;;4.13;;
76667;SDS011;65585;51.166;16.922;2023-06-14T10:44:49;5.90;;;4.15;;
76667;SDS011;65585;51.166;16.922;2023-06-14T10:49:50;7.40;;;5.10;;
76667;SDS011;65585;51.166;16.922;2023-06-14T10:52:20;7.60;;;4.85;;
76667;SDS011;65585;51.166;16.922;2023-06-14T10:55:22;5.88;;;5.00;;
76667;SDS011;65585;51.166;16.922;2023-06-14T11:00:22;7.13;;;5.22;;
76667;SDS011;65585;51.166;16.922;2023-06-14T11:03:04;6.95;;;4.88;;
76667;SDS011;65585;51.166;16.922;2023-06-14T11:11:13;6.55;;;4.80;;
76667;SDS011;65585;51.166;16.922;2023-06-14T11:13:41;5.72;;;4.65;;
76667;SDS011;65585;51.166;16.922;2023-06-14T11:16:11;6.63;;;4.60;;
76667;SDS011;65585;51.166;16.922;2023-06-14T11:18:38;5.95;;;4.22;;
76667;SDS011;65585;51.166;16.922;2023-06-14T11:21:05;5.53;;;4.20;;
76667;SDS011;65585;51.166;16.922;2023-06-14T11:23:31;4.72;;;4.00;;
76667;SDS011;65585;51.166;16.922;2023-06-14T11:25:58;6.97;;;4.43;;
76667;SDS011;65585;51.166;16.922;2023-06-14T11:28:24;7.65;;;4.05;;
76667;SDS011;65585;51.166;16.922;2023-06-14T11:31:01;6.00;;;4.03;;
76667;SDS011;65585;51.166;16.922;2023-06-14T11:33:27;6.30;;;4.18;;
76667;SDS011;65585;51.166;16.922;2023-06-14T11:35:54;6.57;;;3.63;;
76667;SDS011;65585;51.166;16.922;2023-06-14T11:38:20;5.47;;;3.95;;
76667;SDS011;65585;51.166;16.922;2023-06-14T11:40:47;13.10;;;4.75;;
76667;SDS011;65585;51.166;16.922;2023-06-14T11:43:13;5.10;;;4.18;;
76667;SDS011;65585;51.166;16.922;2023-06-14T11:45:40;7.10;;;4.00;;
76667;SDS011;65585;51.166;16.922;2023-06-14T11:48:06;5.20;;;4.13;;
76667;SDS011;65585;51.166;16.922;2023-06-14T11:50:32;6.47;;;4.28;;
76667;SDS011;65585;51.166;16.922;2023-06-14T11:53:04;5.57;;;3.88;;
76667;SDS011;65585;51.166;16.922;2023-06-14T11:55:37;6.07;;;3.97;;
76667;SDS011;65585;51.166;16.922;2023-06-14T11:58:03;5.13;;;3.97;;
76667;SDS011;65585;51.166;16.922;2023-06-14T12:00:31;6.68;;;4.05;;
76667;SDS011;65585;51.166;16.922;2023-06-14T12:02:57;5.45;;;3.88;;
76667;SDS011;65585;51.166;16.922;2023-06-14T12:05:24;5.35;;;3.95;;
76667;SDS011;65585;51.166;16.922;2023-06-14T12:07:57;5.40;;;3.83;;
76667;SDS011;65585;51.166;16.922;2023-06-14T12:10:40;8.80;;;4.00;;
76667;SDS011;65585;51.166;16.922;2023-06-14T12:13:09;7.00;;;4.43;;
76667;SDS011;65585;51.166;16.922;2023-06-14T12:15:36;7.22;;;3.80;;
76667;SDS011;65585;51.166;16.922;2023-06-14T12:18:06;4.82;;;3.78;;
76667;SDS011;65585;51.166;16.922;2023-06-14T12:20:34;4.25;;;3.38;;
76667;SDS011;65585;51.166;16.922;2023-06-14T12:23:02;4.47;;;3.67;;
76667;SDS011;65585;51.166;16.922;2023-06-14T12:25:35;14.38;;;4.57;;
76667;SDS011;65585;51.166;16.922;2023-06-14T12:28:05;40.00;;;9.70;;
76667;SDS011;65585;51.166;16.922;2023-06-14T12:30:32;9.60;;;4.10;;
76667;SDS011;65585;51.166;16.922;2023-06-14T12:32:59;7.95;;;4.00;;
76667;SDS011;65585;51.166;16.922;2023-06-14T12:35:26;17.05;;;5.25;;
76667;SDS011;65585;51.166;16.922;2023-06-14T12:37:52;6.85;;;4.30;;
76667;SDS011;65585;51.166;16.922;2023-06-14T12:40:19;6.75;;;4.25;;
76667;SDS011;65585;51.166;16.922;2023-06-14T12:42:45;4.80;;;3.80;;
76667;SDS011;65585;51.166;16.922;2023-06-14T12:45:14;7.70;;;4.18;;
76667;SDS011;65585;51.166;16.922;2023-06-14T12:47:41;7.60;;;4.00;;
76667;SDS011;65585;51.166;16.922;2023-06-14T12:50:08;4.85;;;4.30;;
76667;SDS011;65585;51.166;16.922;2023-06-14T12:52:34;6.32;;;4.03;;
76667;SDS011;65585;51.166;16.922;2023-06-14T12:55:03;7.18;;;4.47;;
76667;SDS011;65585;51.166;16.922;2023-06-14T12:57:29;5.40;;;4.60;;
76667;SDS011;65585;51.166;16.922;2023-06-14T12:59:56;5.28;;;3.92;;
76667;SDS011;65585;51.166;16.922;2023-06-14T13:02:22;6.47;;;4.43;;
76667;SDS011;65585;51.166;16.922;2023-06-14T13:04:50;6.00;;;4.47;;
76667;SDS011;65585;51.166;16.922;2023-06-14T13:07:16;7.05;;;3.92;;
76667;SDS011;65585;51.166;16.922;2023-06-14T13:09:43;7.25;;;4.35;;
76667;SDS011;65585;51.166;16.922;2023-06-14T13:12:12;7.15;;;5.25;;
76667;SDS011;65585;51.166;16.922;2023-06-14T13:14:39;9.52;;;4.75;;
76667;SDS011;65585;51.166;16.922;2023-06-14T13:17:09;5.90;;;4.57;;
76667;SDS011;65585;51.166;16.922;2023-06-14T13:19:36;7.53;;;4.38;;
76667;SDS011;65585;51.166;16.922;2023-06-14T13:22:02;5.32;;;4.20;;
76667;SDS011;65585;51.166;16.922;2023-06-14T13:24:29;7.28;;;4.40;;
76667;SDS011;65585;51.166;16.922;2023-06-14T13:26:55;6.93;;;4.50;;
76667;SDS011;65585;51.166;16.922;2023-06-14T13:29:25;4.95;;;3.97;;
76667;SDS011;65585;51.166;16.922;2023-06-14T13:31:52;7.28;;;5.00;;
76667;SDS011;65585;51.166;16.922;2023-06-14T13:34:18;7.88;;;5.03;;
76667;SDS011;65585;51.166;16.922;2023-06-14T13:36:44;8.98;;;4.70;;
76667;SDS011;65585;51.166;16.922;2023-06-14T13:39:11;5.80;;;4.68;;
76667;SDS011;65585;51.166;16.922;2023-06-14T13:41:37;7.13;;;4.57;;
76667;SDS011;65585;51.166;16.922;2023-06-14T13:44:04;9.13;;;4.30;;
76667;SDS011;65585;51.166;16.922;2023-06-14T13:46:30;9.65;;;4.68;;
76667;SDS011;65585;51.166;16.922;2023-06-14T13:48:57;8.77;;;5.18;;
76667;SDS011;65585;51.166;16.922;2023-06-14T13:51:27;5.85;;;4.38;;
76667;SDS011;65585;51.166;16.922;2023-06-14T13:53:53;6.25;;;4.72;;
76667;SDS011;65585;51.166;16.922;2023-06-14T13:56:20;9.98;;;4.68;;
76667;SDS011;65585;51.166;16.922;2023-06-14T13:58:48;8.10;;;4.90;;
76667;SDS011;65585;51.166;16.922;2023-06-14T14:01:14;5.22;;;4.38;;
76667;SDS011;65585;51.166;16.922;2023-06-14T14:03:41;7.18;;;5.00;;
76667;SDS011;65585;51.166;16.922;2023-06-14T14:06:07;7.65;;;4.32;;
76667;SDS011;65585;51.166;16.922;2023-06-14T14:08:34;11.40;;;4.82;;
76667;SDS011;65585;51.166;16.922;2023-06-14T14:11:00;6.65;;;4.75;;
76667;SDS011;65585;51.166;16.922;2023-06-14T14:13:26;6.97;;;4.70;;
76667;SDS011;65585;51.166;16.922;2023-06-14T14:15:53;6.22;;;4.65;;
76667;SDS011;65585;51.166;16.922;2023-06-14T14:18:19;5.90;;;4.75;;
76667;SDS011;65585;51.166;16.922;2023-06-14T14:20:48;6.55;;;4.70;;
76667;SDS011;65585;51.166;16.922;2023-06-14T14:23:15;5.55;;;4.15;;
76667;SDS011;65585;51.166;16.922;2023-06-14T14:25:41;10.25;;;4.85;;
76667;SDS011;65585;51.166;16.922;2023-06-14T14:28:08;5.05;;;4.15;;
76667;SDS011;65585;51.166;16.922;2023-06-14T14:30:34;6.32;;;4.22;;
76667;SDS011;65585;51.166;16.922;2023-06-14T14:33:00;7.50;;;4.38;;
76667;SDS011;65585;51.166;16.922;2023-06-14T14:35:26;9.05;;;4.70;;
76667;SDS011;65585;51.166;16.922;2023-06-14T14:37:56;7.07;;;5.13;;
76667;SDS011;65585;51.166;16.922;2023-06-14T14:40:22;7.45;;;5.10;;
76667;SDS011;65585;51.166;16.922;2023-06-14T14:42:48;6.32;;;4.68;;
76667;SDS011;65585;51.166;16.922;2023-06-14T14:45:14;4.80;;;3.88;;
76667;SDS011;65585;51.166;16.922;2023-06-14T14:47:41;5.28;;;4.05;;
76667;SDS011;65585;51.166;16.922;2023-06-14T14:50:07;4.97;;;3.65;;
76667;SDS011;65585;51.166;16.922;2023-06-14T14:52:36;4.32;;;3.67;;
76667;SDS011;65585;51.166;16.922;2023-06-14T14:55:02;4.40;;;3.80;;
76667;SDS011;65585;51.166;16.922;2023-06-14T14:57:28;5.65;;;3.50;;
76667;SDS011;65585;51.166;16.922;2023-06-14T14:59:56;5.43;;;3.42;;
76667;SDS011;65585;51.166;16.922;2023-06-14T15:02:22;3.80;;;3.40;;